Time;durP1;ratioP1;P1;durP2;ratioP2;P2;SDS_P1;SDS_P2;PMS_P1;PMS_P2;Temp;Humidity;BMP_temperature;BMP_pressure;BME280_temperature;BME280_humidity;BME280_pressure;Samples;Min_cycle;Max_cycle;Signal;HPM_P1;HPM_P2
2022/10/05 00:00:25;;;;;;;6.38;3.20;;;;;;;10.39;77.66;101396.59;7407718;19;20509;-68
2022/10/05 00:02:55;;;;;;;5.78;2.97;;;;;;;10.37;77.75;101404.47;7406241;19;20086;-68
2022/10/05 00:05:30;;;;;;;8.13;3.72;;;;;;;10.35;77.89;101400.09;7405461;19;20073;-68
2022/10/05 00:08:06;;;;;;;8.13;3.70;;;;;;;10.32;78.39;101402.75;7406526;19;20029;-68
2022/10/05 00:10:38;;;;;;;5.85;3.83;;;;;;;10.28;78.32;101400.16;7407458;19;20548;-68
2022/10/05 00:13:12;;;;;;;8.02;4.00;;;;;;;10.25;78.37;101405.44;7401807;19;20512;-68
2022/10/05 00:15:41;;;;;;;5.40;3.72;;;;;;;10.23;78.52;101403.72;7401148;19;20070;-68
2022/10/05 00:18:16;;;;;;;6.20;3.42;;;;;;;10.17;78.93;101402.00;7398382;19;20436;-68
2022/10/05 00:20:45;;;;;;;7.47;4.25;;;;;;;10.15;78.84;101409.03;7400829;19;20198;-68
2022/10/05 00:23:19;;;;;;;11.50;3.80;;;;;;;10.11;79.37;101407.34;7398268;19;20023;-68
2022/10/05 00:25:50;;;;;;;;;;;;;;;10.08;80.25;101410.84;7401664;19;20083;-68
2022/10/05 00:28:29;;;;;;;8.52;3.75;;;;;;;10.05;79.58;101405.63;7398474;19;19990;-67
2022/10/05 00:30:58;;;;;;;4.45;3.50;;;;;;;10.02;79.56;101410.91;7400217;19;20466;-67
2022/10/05 00:33:28;;;;;;;6.22;3.45;;;;;;;10.01;79.68;101397.78;7399701;19;20077;-67
2022/10/05 00:35:57;;;;;;;7.63;3.95;;;;;;;10.00;79.98;101403.94;7400000;19;20015;-68
2022/10/05 00:38:25;;;;;;;7.18;4.00;;;;;;;9.98;79.93;101397.81;7397265;19;20521;-68
2022/10/05 00:41:07;;;;;;;12.88;4.10;;;;;;;9.96;80.92;101397.84;7399787;19;20032;-67
2022/10/05 00:44:10;;;;;;;10.65;4.40;;;;;;;9.93;80.76;101406.59;7397825;19;20022;-68
2022/10/05 00:46:53;;;;;;;6.38;4.13;;;;;;;9.92;80.93;101419.69;7399062;19;20090;-67
2022/10/05 00:49:44;;;;;;;6.65;4.03;;;;;;;9.89;81.05;101407.50;7399778;19;20085;-68
2022/10/05 00:52:22;;;;;;;7.90;5.20;;;;;;;9.88;80.83;101410.13;7399928;19;20022;-68
2022/10/05 00:55:00;;;;;;;7.78;4.28;;;;;;;9.85;80.95;101408.41;7396861;19;20389;-68
2022/10/05 00:57:44;;;;;;;4.93;3.70;;;;;;;9.84;81.37;101409.28;7398015;19;20082;-67
2022/10/05 01:00:16;;;;;;;6.30;3.90;;;;;;;9.82;81.47;101397.97;7399664;19;20083;-68
2022/10/05 01:02:54;;;;;;;7.35;4.10;;;;;;;9.80;81.72;101399.72;7398236;19;20424;-68
2022/10/05 01:05:38;;;;;;;19.20;4.78;;;;;;;9.78;81.57;101398.84;7399441;19;20074;-68
2022/10/05 01:08:18;;;;;;;7.85;4.25;;;;;;;9.78;81.74;101402.34;7397703;19;20360;-68
2022/10/05 01:10:52;;;;;;;6.78;4.00;;;;;;;9.77;81.50;101399.75;7399090;19;20383;-67
2022/10/05 01:13:31;;;;;;;5.28;4.20;;;;;;;9.75;81.78;101398.88;7399926;19;20090;-68
2022/10/05 01:16:08;;;;;;;8.60;3.90;;;;;;;9.74;82.07;101397.13;7398999;19;20070;-68
2022/10/05 01:18:48;;;;;;;7.20;4.50;;;;;;;9.72;82.30;101391.06;7396718;19;20035;-68
2022/10/05 01:21:21;;;;;;;12.70;4.60;;;;;;;9.71;82.01;101398.03;7396482;19;20070;-68
2022/10/05 01:24:26;;;;;;;8.77;4.43;;;;;;;9.70;83.06;101390.19;7395394;19;20078;-68
2022/10/05 01:27:13;;;;;;;8.43;4.72;;;;;;;9.69;82.04;101385.81;7396432;19;20090;-68
2022/10/05 01:29:51;;;;;;;9.85;4.50;;;;;;;9.68;82.20;101373.59;7398272;19;20019;-69
2022/10/05 01:32:26;;;;;;;10.27;4.20;;;;;;;9.66;82.24;101367.53;7397808;19;20018;-68
2022/10/05 01:35:03;;;;;;;7.03;4.30;;;;;;;9.64;82.28;101367.50;7397783;19;20488;-69
2022/10/05 01:37:43;;;;;;;8.27;4.80;;;;;;;9.64;82.39;101364.88;7395963;19;20074;-69
2022/10/05 01:40:20;;;;;;;8.40;4.25;;;;;;;9.64;82.97;101367.50;7397490;19;20545;-69
2022/10/05 01:43:03;;;;;;;9.50;4.32;;;;;;;9.65;82.82;101357.91;7395391;19;20424;-70
2022/10/05 01:45:43;;;;;;;8.20;3.95;;;;;;;9.64;82.55;101358.78;7398118;19;20070;-70
2022/10/05 01:48:21;;;;;;;6.63;4.20;;;;;;;9.64;82.82;101366.66;7396508;19;20018;-69
2022/10/05 01:50:58;;;;;;;8.70;4.30;;;;;;;9.61;82.99;101362.31;7397154;19;20086;-69
2022/10/05 01:53:42;;;;;;;9.60;4.38;;;;;;;9.61;83.10;101357.94;7395209;19;20516;-69
2022/10/05 01:56:19;;;;;;;6.97;3.92;;;;;;;9.60;83.00;101358.84;7397034;19;20082;-70
2022/10/05 01:58:57;;;;;;;9.48;4.47;;;;;;;9.60;83.17;101358.84;7395502;19;20022;-69
2022/10/05 02:01:37;;;;;;;5.85;3.65;;;;;;;9.60;83.41;101365.81;7397553;19;20022;-70
2022/10/05 02:04:11;;;;;;;6.57;4.40;;;;;;;9.58;83.49;101365.81;7395744;19;20027;-70
2022/10/05 02:06:43;;;;;;;7.28;4.05;;;;;;;9.56;83.46;101362.34;7396984;19;20081;-69
2022/10/05 02:09:19;;;;;;;8.52;3.92;;;;;;;9.54;83.83;101364.13;7397307;19;20022;-70
2022/10/05 02:11:51;;;;;;;10.77;3.95;;;;;;;9.53;83.42;101370.22;7397470;19;20022;-70
2022/10/05 02:14:24;;;;;;;9.57;4.60;;;;;;;9.51;83.66;101364.13;7398363;19;20031;-70
2022/10/05 02:16:59;;;;;;;6.82;4.45;;;;;;;9.50;83.72;101364.13;7397595;19;20041;-70
2022/10/05 02:19:35;;;;;;;8.18;3.92;;;;;;;9.48;83.95;101372.03;7397274;19;20014;-70
2022/10/05 02:22:09;;;;;;;11.45;4.32;;;;;;;9.42;83.97;101365.06;7396314;19;20032;-70
2022/10/05 02:24:41;;;;;;;9.32;3.97;;;;;;;9.44;83.92;101370.31;7396904;19;20077;-69
2022/10/05 02:27:12;;;;;;;6.63;3.90;;;;;;;9.42;83.99;101370.28;7395403;19;20078;-69
2022/10/05 02:29:46;;;;;;;8.65;4.10;;;;;;;9.40;83.75;101387.78;7394622;19;20035;-69
2022/10/05 02:32:23;;;;;;;5.78;3.95;;;;;;;9.39;83.95;101387.78;7396486;19;20078;-69
2022/10/05 02:34:52;;;;;;;7.18;3.85;;;;;;;9.36;84.65;101386.03;7394719;19;20078;-69
2022/10/05 02:37:28;;;;;;;6.47;4.30;;;;;;;9.33;84.68;101382.59;7394102;19;20074;-68
2022/10/05 02:40:06;;;;;;;8.10;4.63;;;;;;;9.31;84.33;101379.13;7393575;19;20081;-68
2022/10/05 02:42:45;;;;;;;10.15;4.30;;;;;;;9.29;84.31;101373.91;7395410;19;20070;-69
2022/10/05 02:45:25;;;;;;;8.00;4.25;;;;;;;9.25;84.71;101364.28;7396344;19;20082;-68
2022/10/05 02:48:05;;;;;;;5.13;4.60;;;;;;;9.23;84.71;101374.78;7394424;19;20039;-68
2022/10/05 02:50:44;;;;;;;7.53;4.30;;;;;;;9.21;84.73;101376.56;7396069;19;20015;-69
2022/10/05 02:53:23;;;;;;;7.53;4.05;;;;;;;9.19;85.04;101370.44;7395271;19;20426;-69
2022/10/05 02:56:02;;;;;;;7.00;4.60;;;;;;;9.17;84.67;101373.97;7395794;19;20079;-69
2022/10/05 02:58:40;;;;;;;10.52;4.93;;;;;;;9.13;84.86;101373.97;7393474;19;20081;-69
2022/10/05 03:01:16;;;;;;;7.40;3.97;;;;;;;9.12;84.86;101371.34;7393869;19;20090;-69
2022/10/05 03:03:52;;;;;;;9.95;4.00;;;;;;;9.06;84.72;101361.81;7393799;19;20039;-69
2022/10/05 03:06:27;;;;;;;8.30;4.57;;;;;;;9.08;84.84;101373.13;7393097;19;20510;-68
2022/10/05 03:09:01;;;;;;;7.10;4.60;;;;;;;9.06;84.87;101368.78;7392729;19;20170;-70
2022/10/05 03:11:40;;;;;;;6.45;3.95;;;;;;;9.04;85.01;101360.94;7394514;19;20485;-69
2022/10/05 03:14:15;;;;;;;7.82;4.05;;;;;;;9.03;85.00;101358.34;7395402;19;20074;-69
2022/10/05 03:16:55;;;;;;;7.60;3.88;;;;;;;9.00;84.96;101356.59;7395109;19;20014;-69
2022/10/05 03:19:47;;;;;;;7.63;4.45;;;;;;;9.01;85.30;101365.31;7393231;19;20086;-70
2022/10/05 03:22:30;;;;;;;8.63;4.30;;;;;;;8.98;85.25;101354.88;7394914;19;20086;-67
2022/10/05 03:25:20;;;;;;;8.60;4.78;;;;;;;8.99;85.34;101359.25;7392986;19;20074;-67
2022/10/05 03:27:57;;;;;;;6.57;4.25;;;;;;;8.96;85.53;101357.50;7393506;19;20015;-68
2022/10/05 03:30:26;;;;;;;7.57;4.25;;;;;;;8.95;85.46;101355.75;7394854;19;20018;-67
2022/10/05 03:33:03;;;;;;;5.25;3.83;;;;;;;8.92;85.46;101351.41;7394466;19;20022;-67
2022/10/05 03:35:45;;;;;;;9.32;4.25;;;;;;;8.95;85.20;101345.28;7391910;19;20074;-68
2022/10/05 03:38:20;;;;;;;8.80;3.72;;;;;;;8.94;85.57;101347.03;7392134;19;20025;-68
2022/10/05 03:40:54;;;;;;;6.57;4.10;;;;;;;8.92;85.49;101351.41;7391599;19;20484;-68
2022/10/05 03:43:43;;;;;;;7.60;4.78;;;;;;;8.93;85.98;101347.03;7393619;19;20010;-67
2022/10/05 03:46:20;;;;;;;8.13;4.20;;;;;;;8.93;85.55;101347.03;7394259;19;20032;-68
2022/10/05 03:48:56;;;;;;;8.85;3.95;;;;;;;8.92;85.67;101346.19;7395671;19;20469;-68
2022/10/05 03:51:33;;;;;;;5.47;4.28;;;;;;;8.94;85.78;101335.69;7401485;19;20023;-67
2022/10/05 03:54:10;;;;;;;5.90;3.95;;;;;;;8.96;85.44;101337.44;7400549;19;20478;-68
2022/10/05 03:56:45;;;;;;;6.07;4.03;;;;;;;8.98;85.59;101331.31;7401108;19;20026;-67
2022/10/05 03:59:18;;;;;;;5.70;3.78;;;;;;;9.00;85.33;101332.16;7401392;19;20074;-68
2022/10/05 04:01:52;;;;;;;8.50;4.00;;;;;;;9.01;85.35;101324.31;7401191;19;20405;-68
2022/10/05 04:04:28;;;;;;;7.68;3.85;;;;;;;9.03;85.35;101326.94;7398716;19;20032;-68
2022/10/05 04:07:01;;;;;;;10.00;3.78;;;;;;;9.05;85.24;101322.53;7399971;19;20108;-68
2022/10/05 04:09:35;;;;;;;8.57;4.15;;;;;;;9.06;85.14;101322.53;7397591;19;20423;-69
2022/10/05 04:12:06;;;;;;;;;;;;;;;9.06;85.99;101312.06;7399223;19;20041;-69
2022/10/05 04:14:38;;;;;;;8.82;3.88;;;;;;;9.08;85.33;101319.91;7400802;19;19939;-69
2022/10/05 04:17:13;;;;;;;7.88;3.90;;;;;;;9.10;85.00;101326.88;7398208;19;20719;-70
2022/10/05 04:19:47;;;;;;;9.85;3.80;;;;;;;9.12;85.15;101311.16;7397508;19;20018;-68
2022/10/05 04:22:23;;;;;;;6.45;4.18;;;;;;;9.13;85.07;101316.38;7400468;19;20019;-68
2022/10/05 04:25:01;;;;;;;9.73;3.25;;;;;;;9.16;85.09;101307.63;7397025;19;20138;-68
2022/10/05 04:27:35;;;;;;;7.15;3.72;;;;;;;9.18;85.31;101313.72;7397913;19;20098;-69
2022/10/05 04:30:07;;;;;;;;;;;;;;;9.19;85.38;101307.63;7398115;19;20415;-68
2022/10/05 04:32:39;;;;;;;7.00;3.60;;;;;;;9.19;84.77;101312.84;7399510;19;20244;-68
2022/10/05 04:35:26;;;;;;;6.78;3.70;;;;;;;9.22;85.12;101312.81;7399469;19;20019;-68
2022/10/05 04:38:05;;;;;;;5.45;3.30;;;;;;;9.25;84.89;101304.06;7398243;19;20018;-69
2022/10/05 04:40:56;;;;;;;5.95;3.60;;;;;;;9.26;84.73;101298.84;7396404;19;20098;-68
2022/10/05 04:43:35;;;;;;;6.20;3.28;;;;;;;9.28;84.79;101301.44;7398794;19;20074;-68
2022/10/05 04:46:19;;;;;;;6.68;3.13;;;;;;;9.29;84.91;101304.06;7398791;19;20502;-68
2022/10/05 04:49:05;;;;;;;7.55;5.15;;;;;;;9.31;84.82;101292.69;7396334;19;20419;-68
2022/10/05 04:51:42;;;;;;;4.22;3.53;;;;;;;9.32;84.68;101297.91;7397209;19;20019;-68
2022/10/05 04:54:26;;;;;;;9.02;4.07;;;;;;;9.33;84.73;101288.34;7399446;19;20044;-67
2022/10/05 04:56:58;;;;;;;6.80;4.40;;;;;;;9.34;84.53;101290.03;7397547;19;20054;-69
2022/10/05 04:59:56;;;;;;;5.63;3.33;;;;;;;9.35;84.62;101300.53;7397583;19;20031;-68
2022/10/05 05:02:35;;;;;;;6.68;3.60;;;;;;;9.36;84.57;101304.88;7398152;19;20023;-68
2022/10/05 05:05:22;;;;;;;6.40;3.80;;;;;;;9.37;84.46;101314.47;7395389;19;20019;-68
2022/10/05 05:07:57;;;;;;;7.28;3.53;;;;;;;9.37;84.45;101317.09;7395143;19;20018;-68
2022/10/05 05:10:54;;;;;;;5.63;3.40;;;;;;;9.39;84.58;101320.56;7397250;19;20026;-69
2022/10/05 05:13:59;;;;;;;9.27;3.90;;;;;;;9.41;84.59;101316.16;7396426;19;20010;-69
2022/10/05 05:16:33;;;;;;;;;;;;;;;9.42;84.79;101315.28;7396739;19;20022;-68
2022/10/05 05:19:19;;;;;;;7.47;3.05;;;;;;;9.44;84.24;101315.31;7395265;19;19932;-68
2022/10/05 05:21:55;;;;;;;6.38;3.83;;;;;;;9.42;84.30;101314.44;7395381;19;20031;-68
2022/10/05 05:24:34;;;;;;;5.05;3.55;;;;;;;9.44;84.14;101312.69;7393095;19;20082;-68
2022/10/05 05:27:20;;;;;;;8.68;3.45;;;;;;;9.46;84.27;101308.28;7396054;19;20022;-67
2022/10/05 05:29:58;;;;;;;5.38;3.67;;;;;;;9.47;84.13;101302.16;7397090;19;20019;-68
2022/10/05 05:32:40;;;;;;;8.18;4.07;;;;;;;9.48;84.18;101306.53;7395548;19;20031;-66
2022/10/05 05:35:39;;;;;;;7.70;3.65;;;;;;;9.52;85.03;101310.84;7394972;19;20018;-65
2022/10/05 05:38:21;;;;;;;6.55;3.20;;;;;;;9.58;84.54;101304.72;7396215;19;20090;-66
2022/10/05 05:41:04;;;;;;;5.55;3.60;;;;;;;9.65;84.36;101302.91;7394611;19;20055;-67
2022/10/05 05:43:48;;;;;;;6.35;3.15;;;;;;;9.70;84.39;101295.88;7394615;19;20493;-66
2022/10/05 05:46:22;;;;;;;6.78;3.45;;;;;;;9.75;84.11;101301.94;7397578;19;20423;-66
2022/10/05 05:48:53;;;;;;;7.90;3.28;;;;;;;9.81;83.95;101299.25;7395144;19;20495;-67
2022/10/05 05:51:28;;;;;;;8.40;3.63;;;;;;;9.85;83.76;101294.84;7397353;19;20018;-67
2022/10/05 05:54:15;;;;;;;7.90;3.08;;;;;;;9.89;83.65;101293.94;7397678;19;20019;-67
2022/10/05 05:56:50;;;;;;;8.63;3.67;;;;;;;9.94;83.40;101305.22;7397353;19;20023;-66
2022/10/05 05:59:27;;;;;;;9.35;3.42;;;;;;;9.95;83.22;101294.72;7396925;19;20086;-67
2022/10/05 06:02:02;;;;;;;9.57;3.80;;;;;;;9.97;83.39;101286.88;7396466;19;20014;-67
2022/10/05 06:04:35;;;;;;;8.30;4.50;;;;;;;10.01;83.07;101303.41;7395135;19;20519;-66
2022/10/05 06:07:06;;;;;;;6.60;4.35;;;;;;;10.03;83.08;101301.66;7394582;19;20023;-66
2022/10/05 06:09:39;;;;;;;8.88;3.83;;;;;;;10.04;83.12;101303.41;7396261;19;20031;-66
2022/10/05 06:12:11;;;;;;;4.88;3.38;;;;;;;10.05;82.93;101313.00;7392621;19;20399;-66
2022/10/05 06:14:48;;;;;;;8.15;3.50;;;;;;;10.07;83.06;101305.97;7396459;19;20018;-67
2022/10/05 06:17:23;;;;;;;7.22;3.40;;;;;;;10.09;83.05;101315.56;7394517;19;20035;-67
2022/10/05 06:19:57;;;;;;;4.75;3.15;;;;;;;10.12;82.92;101309.41;7395505;19;20014;-67
2022/10/05 06:22:31;;;;;;;6.22;3.08;;;;;;;10.15;82.85;101298.91;7396126;19;20361;-67
2022/10/05 06:25:17;;;;;;;7.25;3.22;;;;;;;10.20;82.35;101304.97;7394354;19;20031;-69
2022/10/05 06:28:04;;;;;;;6.45;3.10;;;;;;;10.22;82.04;101310.19;7394337;19;20090;-68
2022/10/05 06:30:47;;;;;;;9.95;3.78;;;;;;;10.22;82.13;101311.06;7393745;19;20027;-68
2022/10/05 06:33:29;;;;;;;6.47;3.15;;;;;;;10.22;82.13;101318.94;7395632;19;20485;-67
2022/10/05 06:36:21;;;;;;;7.15;3.72;;;;;;;10.23;81.83;101309.31;7395967;19;20031;-68
2022/10/05 06:39:06;;;;;;;6.00;3.70;;;;;;;10.24;81.76;101303.19;7393363;19;20085;-67
2022/10/05 06:41:46;;;;;;;4.82;3.38;;;;;;;10.25;82.00;101312.78;7393407;19;20014;-65
2022/10/05 06:44:18;;;;;;;10.43;4.05;;;;;;;10.28;81.88;101318.84;7395051;19;20019;-66
2022/10/05 06:47:01;;;;;;;5.55;3.33;;;;;;;10.32;81.94;101318.81;7395228;19;20014;-65
2022/10/05 06:49:33;;;;;;;8.02;3.63;;;;;;;10.34;81.77;101322.31;7395702;19;20019;-65
2022/10/05 06:52:13;;;;;;;6.30;3.38;;;;;;;10.37;81.80;101322.28;7395030;19;20022;-66
2022/10/05 06:54:52;;;;;;;6.63;3.65;;;;;;;10.39;81.60;101323.16;7395210;19;20022;-65
2022/10/05 06:57:44;;;;;;;6.68;3.47;;;;;;;10.42;81.51;101329.22;7394109;19;20090;-65
2022/10/05 07:00:20;;;;;;;6.03;3.60;;;;;;;10.45;81.42;101330.06;7394906;19;20026;-66
2022/10/05 07:02:59;;;;;;;9.23;4.10;;;;;;;10.46;81.32;101327.41;7395615;19;20032;-66
2022/10/05 07:05:44;;;;;;;6.30;3.78;;;;;;;10.48;81.33;101323.03;7393209;19;20074;-65
2022/10/05 07:08:19;;;;;;;5.28;3.53;;;;;;;10.51;81.46;101325.59;7394199;19;20040;-66
2022/10/05 07:11:05;;;;;;;6.95;4.03;;;;;;;10.57;81.25;101328.16;7395344;19;20027;-65
2022/10/05 07:14:05;;;;;;;6.30;3.63;;;;;;;10.63;81.16;101319.34;7394673;19;20025;-65
2022/10/05 07:16:40;;;;;;;6.40;3.95;;;;;;;10.70;81.11;101321.03;7392780;19;20035;-65
2022/10/05 07:19:26;;;;;;;6.53;3.95;;;;;;;10.75;80.79;101324.44;7395215;19;20015;-66
2022/10/05 07:22:09;;;;;;;4.82;3.63;;;;;;;10.83;80.78;101326.09;7396210;19;20018;-65
2022/10/05 07:24:43;;;;;;;9.05;3.70;;;;;;;10.89;80.36;101323.38;7398217;19;20422;-65
2022/10/05 07:27:18;;;;;;;8.10;3.92;;;;;;;10.95;80.31;101331.19;7398798;19;20027;-65
2022/10/05 07:29:52;;;;;;;5.45;3.33;;;;;;;11.02;79.87;101311.81;7401743;19;20014;-67
2022/10/05 07:32:35;;;;;;;7.07;3.45;;;;;;;11.12;79.80;101316.94;7401531;19;20037;-65
2022/10/05 07:37:53;;;;;;;5.53;3.50;;;;;;;11.20;79.66;101321.19;7398753;19;20022;-65
2022/10/05 07:38:09;;;;;;;8.70;3.80;;;;;;;11.30;78.97;101321.91;7398761;19;20010;-66
2022/10/05 07:40:41;;;;;;;10.80;3.75;;;;;;;11.36;78.52;101318.31;7398963;19;20496;-65
2022/10/05 07:43:23;;;;;;;9.32;3.70;;;;;;;11.47;78.47;101313.75;7401720;19;20027;-66
2022/10/05 07:45:57;;;;;;;10.32;4.68;;;;;;;11.55;78.63;101314.50;7398204;19;20032;-66
2022/10/05 07:48:32;;;;;;;5.85;3.15;;;;;;;11.62;78.32;101303.91;7399268;19;20051;-65
2022/10/05 07:51:08;;;;;;;5.95;3.35;;;;;;;11.67;78.29;101304.69;7398549;19;20112;-65
2022/10/05 07:53:40;;;;;;;6.85;3.22;;;;;;;11.72;78.00;101294.94;7398518;19;20506;-65
2022/10/05 07:56:17;;;;;;;5.35;3.33;;;;;;;11.77;77.82;101287.00;7399538;19;20044;-66
2022/10/05 07:58:50;;;;;;;7.22;4.30;;;;;;;11.80;77.72;101282.53;7398013;19;20387;-66
2022/10/05 08:01:23;;;;;;;10.32;3.53;;;;;;;11.86;77.64;101292.06;7401068;19;20031;-65
2022/10/05 08:03:57;;;;;;;7.30;3.88;;;;;;;11.90;77.63;101297.25;7400472;19;20031;-66
2022/10/05 08:06:42;;;;;;;4.47;3.15;;;;;;;11.95;77.42;101301.56;7401914;19;20078;-66
2022/10/05 08:09:23;;;;;;;3.92;3.22;;;;;;;11.98;77.51;101302.41;7400811;19;20026;-66
2022/10/05 08:12:01;;;;;;;5.35;3.30;;;;;;;12.04;77.34;101309.28;7398745;19;20073;-66
2022/10/05 08:14:37;;;;;;;11.10;4.00;;;;;;;12.10;77.34;101298.66;7398542;19;20023;-65
2022/10/05 08:17:14;;;;;;;7.47;3.40;;;;;;;12.16;77.14;101313.47;7399884;19;20018;-65
2022/10/05 08:19:48;;;;;;;5.63;3.67;;;;;;;12.19;77.13;101316.88;7399920;19;20485;-65
2022/10/05 08:22:27;;;;;;;4.28;3.10;;;;;;;12.25;76.86;101318.53;7400535;19;20028;-65
2022/10/05 08:25:00;;;;;;;4.28;3.30;;;;;;;12.30;77.27;101316.69;7398480;19;20037;-65
2022/10/05 08:27:40;;;;;;;6.22;3.13;;;;;;;12.35;77.15;101317.47;7399343;19;20021;-64
2022/10/05 08:30:13;;;;;;;8.70;3.90;;;;;;;12.42;77.30;101312.09;7400589;19;20018;-66
2022/10/05 08:32:49;;;;;;;8.15;3.40;;;;;;;12.45;77.12;101305.00;7402784;19;20028;-65
2022/10/05 08:35:33;;;;;;;7.13;3.55;;;;;;;12.53;77.10;101312.72;7396808;19;20461;-66
2022/10/05 08:38:10;;;;;;;4.32;3.40;;;;;;;12.58;76.71;101310.00;7397150;19;20022;-65
2022/10/05 08:41:17;;;;;;;6.45;3.60;;;;;;;12.63;76.33;101298.47;7397092;19;20010;-65
2022/10/05 08:44:06;;;;;;;6.22;3.60;;;;;;;12.71;76.46;101299.19;7396286;19;20035;-66
2022/10/05 08:47:01;;;;;;;4.70;2.85;;;;;;;12.77;76.16;101306.06;7399582;19;20014;-66
2022/10/05 08:49:58;;;;;;;4.82;3.42;;;;;;;12.85;75.98;101288.34;7397311;19;20022;-66
2022/10/05 08:52:30;;;;;;;7.30;3.08;;;;;;;12.94;75.85;101286.38;7399589;19;20011;-65
2022/10/05 08:55:30;;;;;;;6.45;3.40;;;;;;;13.05;75.56;101279.09;7397181;19;20014;-65
2022/10/05 08:58:29;;;;;;;4.45;3.17;;;;;;;13.16;75.30;101278.88;7396730;19;20018;-65
2022/10/05 09:01:03;;;;;;;4.22;2.58;;;;;;;13.27;74.81;101287.38;7396993;19;20027;-65
2022/10/05 09:04:09;;;;;;;5.88;2.67;;;;;;;13.38;74.20;101284.50;7396131;19;20381;-65
2022/10/05 09:07:10;;;;;;;6.38;2.80;;;;;;;13.52;74.12;101281.50;7397967;19;20161;-66
2022/10/05 09:10:12;;;;;;;5.13;2.53;;;;;;;13.63;73.46;101276.81;7398055;19;20010;-66
2022/10/05 09:13:25;;;;;;;4.95;2.50;;;;;;;13.77;73.52;101272.97;7397960;19;20028;-66
2022/10/05 09:16:32;;;;;;;5.03;2.55;;;;;;;13.93;72.11;101273.44;7398155;19;20074;-65
2022/10/05 09:19:26;;;;;;;7.18;3.35;;;;;;;14.05;71.21;101259.03;7396937;19;20018;-66
2022/10/05 09:21:58;;;;;;;;;;;;;;;14.17;70.93;101256.03;7397058;19;20035;-65
2022/10/05 09:24:30;;;;;;;5.07;2.80;;;;;;;14.29;72.05;101252.19;7395071;19;19922;-66
2022/10/05 09:27:09;;;;;;;4.60;2.80;;;;;;;14.42;71.08;101255.31;7396588;19;20056;-66
2022/10/05 09:30:17;;;;;;;3.80;2.67;;;;;;;14.55;70.23;101240.84;7395028;19;20023;-66
2022/10/05 09:33:22;;;;;;;5.38;2.50;;;;;;;14.68;69.71;101230.78;7394518;19;20365;-63
2022/10/05 09:36:29;;;;;;;4.32;3.03;;;;;;;14.78;69.45;101237.50;7397516;19;20027;-66
2022/10/05 09:39:31;;;;;;;6.68;2.95;;;;;;;14.91;69.52;101239.78;7394166;19;20383;-69
2022/10/05 09:42:24;;;;;;;4.22;2.72;;;;;;;15.03;69.58;101249.97;7395230;19;20509;-68
2022/10/05 09:45:18;;;;;;;7.63;3.88;;;;;;;15.15;68.67;101243.41;7394763;19;20014;-66
2022/10/05 09:48:24;;;;;;;3.80;2.95;;;;;;;15.26;67.84;101228.03;7396003;19;20371;-66
2022/10/05 09:51:22;;;;;;;8.43;5.25;;;;;;;15.38;67.40;101228.53;7399157;19;20007;-66
2022/10/05 09:54:21;;;;;;;7.25;4.10;;;;;;;15.45;67.21;101220.34;7397882;19;20036;-66
2022/10/05 09:57:21;;;;;;;4.78;3.47;;;;;;;15.55;67.40;101228.84;7396664;19;20032;-65
2022/10/05 10:00:09;;;;;;;5.05;3.90;;;;;;;15.62;67.01;101227.72;7395032;19;20093;-66
2022/10/05 10:03:12;;;;;;;9.65;3.40;;;;;;;15.71;66.51;101223.00;7397694;19;20014;-65
2022/10/05 10:06:17;;;;;;;5.03;3.90;;;;;;;15.80;67.13;101222.69;7395459;19;20033;-66
2022/10/05 10:09:01;;;;;;;3.53;2.90;;;;;;;15.89;67.12;101218.88;7394517;19;20031;-66
2022/10/05 10:12:06;;;;;;;5.05;2.72;;;;;;;15.98;66.50;101209.75;7396151;19;20011;-65
2022/10/05 10:15:06;;;;;;;5.30;2.70;;;;;;;16.06;66.73;101219.13;7396009;19;20039;-66
2022/10/05 10:17:56;;;;;;;4.30;2.33;;;;;;;16.18;66.47;101203.69;7395217;19;20521;-66
2022/10/05 10:20:38;;;;;;;7.03;2.80;;;;;;;16.26;65.65;101215.72;7396024;19;20027;-65
2022/10/05 10:23:19;;;;;;;6.47;2.58;;;;;;;16.34;64.93;101199.53;7393581;19;20493;-65
2022/10/05 10:26:20;;;;;;;3.13;2.40;;;;;;;16.40;64.96;101198.44;7393258;19;20489;-66
2022/10/05 10:29:21;;;;;;;6.75;2.40;;;;;;;16.54;64.80;101197.88;7393780;19;20087;-67
2022/10/05 10:32:04;;;;;;;5.63;2.90;;;;;;;16.63;64.78;101197.53;7393567;19;20018;-66
2022/10/05 10:35:10;;;;;;;2.53;2.00;;;;;;;16.70;64.60;101198.16;7393814;19;20039;-67
2022/10/05 10:38:01;;;;;;;5.80;2.60;;;;;;;16.76;64.92;101197.91;7394055;19;20022;-68
2022/10/05 10:40:41;;;;;;;5.88;2.10;;;;;;;16.77;63.71;101189.03;7394509;19;20014;-65
2022/10/05 10:43:40;;;;;;;4.35;2.10;;;;;;;16.80;62.47;101185.41;7395024;19;20511;-65
2022/10/05 10:46:22;;;;;;;5.03;2.00;;;;;;;16.92;63.31;101190.19;7392579;19;20011;-66
2022/10/05 10:48:58;;;;;;;4.72;3.00;;;;;;;17.03;64.63;101187.13;7393499;19;20039;-66
2022/10/05 10:51:49;;;;;;;6.00;2.80;;;;;;;17.09;63.59;101189.53;7396478;19;20015;-66
2022/10/05 10:54:55;;;;;;;9.65;4.18;;;;;;;17.17;63.05;101186.53;7394734;19;20019;-66
2022/10/05 10:57:31;;;;;;;5.53;2.50;;;;;;;17.21;62.96;101182.81;7393487;19;20032;-65
2022/10/05 11:00:17;;;;;;;5.72;2.63;;;;;;;17.24;62.63;101182.72;7394826;19;20031;-67
2022/10/05 11:03:09;;;;;;;4.45;2.42;;;;;;;17.26;62.29;101181.72;7392743;19;20020;-66
2022/10/05 11:06:15;;;;;;;3.10;2.30;;;;;;;17.22;61.41;101176.59;7393759;19;20487;-66
2022/10/05 11:09:25;;;;;;;3.10;2.38;;;;;;;17.17;61.29;101170.63;7393077;19;20018;-66
2022/10/05 11:12:28;;;;;;;3.97;2.25;;;;;;;17.15;62.28;101168.06;7393813;19;20023;-66
2022/10/05 11:15:10;;;;;;;5.13;2.67;;;;;;;17.14;62.54;101157.53;7392164;19;20024;-66
2022/10/05 11:18:03;;;;;;;5.30;3.40;;;;;;;17.19;61.92;101158.19;7392681;19;20022;-66
2022/10/05 11:20:54;;;;;;;6.68;2.17;;;;;;;17.20;62.02;101152.81;7393733;19;20140;-65
2022/10/05 11:23:54;;;;;;;6.00;2.55;;;;;;;17.25;61.80;101148.16;7390551;19;20025;-65
2022/10/05 11:26:43;;;;;;;4.38;2.60;;;;;;;17.31;62.54;101152.31;7390314;19;20019;-65
2022/10/05 11:29:40;;;;;;;5.40;2.38;;;;;;;17.38;60.32;101151.13;7393624;19;20031;-65
2022/10/05 11:32:38;;;;;;;5.45;2.22;;;;;;;17.48;59.38;101148.94;7391298;19;20032;-64
2022/10/05 11:35:43;;;;;;;3.95;1.95;;;;;;;17.58;58.64;101139.66;7392132;19;20096;-68
2022/10/05 11:38:33;;;;;;;2.20;1.80;;;;;;;17.66;58.41;101141.94;7391527;19;20018;-67
2022/10/05 11:41:37;;;;;;;3.45;2.15;;;;;;;17.73;57.41;101138.09;7391503;19;20485;-69
2022/10/05 11:44:44;;;;;;;3.10;1.92;;;;;;;17.85;58.11;101135.81;7391861;19;20082;-67
2022/10/05 11:47:20;;;;;;;5.30;2.40;;;;;;;17.95;57.27;101131.81;7390226;19;20019;-67
2022/10/05 11:49:56;;;;;;;3.40;1.83;;;;;;;18.04;55.93;101136.69;7392033;19;20508;-68
2022/10/05 11:52:38;;;;;;;3.30;1.77;;;;;;;18.13;55.91;101130.09;7392240;19;20035;-67
2022/10/05 11:55:25;;;;;;;5.57;2.55;;;;;;;18.23;56.68;101127.88;7393359;19;20090;-67
2022/10/05 11:57:57;;;;;;;6.10;2.38;;;;;;;18.33;57.13;101120.31;7391854;19;20026;-70
2022/10/05 12:00:32;;;;;;;2.42;1.77;;;;;;;18.42;56.13;101134.97;7393120;19;20506;-70
2022/10/05 12:03:29;;;;;;;4.05;2.25;;;;;;;18.51;55.59;101123.88;7393131;19;20019;-68
2022/10/05 12:06:10;;;;;;;4.65;2.20;;;;;;;18.60;55.34;101127.88;7391997;19;20022;-68
2022/10/05 12:08:56;;;;;;;4.32;2.20;;;;;;;18.70;54.79;101123.81;7392120;19;20022;-68
2022/10/05 12:11:39;;;;;;;3.78;1.67;;;;;;;18.76;54.32;101130.66;7400179;19;20036;-68
2022/10/05 12:14:14;;;;;;;4.07;1.92;;;;;;;18.78;54.16;101129.63;7398414;19;20019;-68
2022/10/05 12:16:52;;;;;;;4.70;1.85;;;;;;;18.80;53.80;101126.88;7400405;19;20039;-67
2022/10/05 12:19:28;;;;;;;2.20;1.55;;;;;;;18.79;54.76;101117.19;7400392;19;20014;-67
2022/10/05 12:22:02;;;;;;;4.05;2.28;;;;;;;18.83;55.11;101116.97;7397837;19;20015;-67
2022/10/05 12:25:00;;;;;;;7.90;1.92;;;;;;;18.92;54.15;101118.34;7397493;19;20018;-67
2022/10/05 12:27:33;;;;;;;4.03;1.70;;;;;;;19.06;55.40;101112.31;7396598;19;20085;-66
2022/10/05 12:30:07;;;;;;;4.32;1.70;;;;;;;19.21;53.32;101116.81;7399149;19;20484;-66
2022/10/05 12:32:45;;;;;;;2.67;1.60;;;;;;;19.36;52.03;101125.81;7399188;19;20026;-67
2022/10/05 12:35:21;;;;;;;3.83;1.90;;;;;;;19.46;51.49;101130.63;7399258;19;20481;-65
2022/10/05 12:38:02;;;;;;;2.65;1.77;;;;;;;19.59;51.14;101122.84;7397490;19;20078;-68